Time;durP1;ratioP1;P1;durP2;ratioP2;P2;SDS_P1;SDS_P2;PMS_P1;PMS_P2;Temp;Humidity;BMP_temperature;BMP_pressure;BME280_temperature;BME280_humidity;BME280_pressure;Samples;Min_cycle;Max_cycle;Signal;HPM_P1;HPM_P2
2021/05/04 00:01:20;;;;;;;14.95;2.08;;;;;;;;;;5073583;28;20020;-67
2021/05/04 00:03:45;;;;;;;15.70;2.10;;;;;;;;;;5074115;28;20033;-65
2021/05/04 00:06:11;;;;;;;13.50;2.03;;;;;;;;;;5073696;28;20074;-64
2021/05/04 00:08:36;;;;;;;13.65;2.30;;;;;;;;;;5073846;28;20020;-65
2021/05/04 00:11:02;;;;;;;9.65;1.77;;;;;;;;;;5073771;28;20035;-65
2021/05/04 00:13:27;;;;;;;13.75;2.13;;;;;;;;;;5073465;28;20120;-65
2021/05/04 00:15:52;;;;;;;16.13;2.05;;;;;;;;;;5072319;28;20032;-65
2021/05/04 00:18:18;;;;;;;11.68;1.80;;;;;;;;;;5073716;28;20070;-65
2021/05/04 00:20:43;;;;;;;12.27;2.33;;;;;;;;;;5073506;28;20054;-65
2021/05/04 00:23:08;;;;;;;10.77;1.75;;;;;;;;;;5073493;28;20032;-65
2021/05/04 00:25:34;;;;;;;13.18;2.17;;;;;;;;;;5073574;28;20052;-65
2021/05/04 00:27:59;;;;;;;4.72;1.80;;;;;;;;;;5073717;28;20028;-65
2021/05/04 00:30:24;;;;;;;9.27;1.90;;;;;;;;;;5073429;28;20070;-67
2021/05/04 00:32:50;;;;;;;8.77;1.35;;;;;;;;;;5073118;28;20073;-67
2021/05/04 00:35:15;;;;;;;7.57;1.38;;;;;;;;;;5073386;28;20060;-67
2021/05/04 00:37:40;;;;;;;8.70;1.30;;;;;;;;;;5073241;28;20099;-67
2021/05/04 00:40:06;;;;;;;7.07;2.20;;;;;;;;;;5073009;28;20040;-67
2021/05/04 00:42:31;;;;;;;6.15;1.92;;;;;;;;;;5061396;28;20044;-67
2021/05/04 00:44:56;;;;;;;5.97;1.90;;;;;;;;;;5053272;28;20358;-65
2021/05/04 00:47:22;;;;;;;8.45;1.55;;;;;;;;;;5051881;28;20025;-65
2021/05/04 00:49:47;;;;;;;9.82;1.20;;;;;;;;;;5052612;28;20513;-65
2021/05/04 00:52:12;;;;;;;7.30;1.33;;;;;;;;;;5053049;28;20031;-65
2021/05/04 00:54:38;;;;;;;5.70;1.30;;;;;;;;;;5052971;28;20029;-65
2021/05/04 00:57:04;;;;;;;6.03;1.13;;;;;;;;;;5053002;28;20029;-65
2021/05/04 00:59:30;;;;;;;7.28;1.05;;;;;;;;;;5053115;28;20430;-65
2021/05/04 01:01:55;;;;;;;9.57;1.75;;;;;;;;;;5052971;28;20025;-67
2021/05/04 01:04:22;;;;;;;8.25;1.17;;;;;;;;;;5052619;28;20048;-67
2021/05/04 01:06:48;;;;;;;7.35;1.10;;;;;;;;;;5053237;28;20365;-67
2021/05/04 01:09:14;;;;;;;7.35;1.38;;;;;;;;;;5053099;28;20017;-67
2021/05/04 01:11:39;;;;;;;9.95;1.60;;;;;;;;;;5052914;28;20037;-67
2021/05/04 01:14:04;;;;;;;6.63;1.00;;;;;;;;;;5051708;28;20048;-65
2021/05/04 01:16:30;;;;;;;5.72;1.60;;;;;;;;;;5053224;28;20033;-64
2021/05/04 01:18:55;;;;;;;5.70;1.27;;;;;;;;;;5052803;28;20037;-65
2021/05/04 01:21:20;;;;;;;12.00;1.45;;;;;;;;;;5052798;28;20025;-65
2021/05/04 01:23:46;;;;;;;5.82;1.08;;;;;;;;;;5052943;28;20037;-65
2021/05/04 01:26:11;;;;;;;6.68;1.13;;;;;;;;;;5052747;28;20418;-65
2021/05/04 01:28:36;;;;;;;6.97;1.02;;;;;;;;;;5053137;28;20032;-65
2021/05/04 01:31:02;;;;;;;6.53;1.40;;;;;;;;;;5051941;28;20098;-65
2021/05/04 01:33:27;;;;;;;10.65;1.50;;;;;;;;;;5052691;28;20040;-65
2021/05/04 01:35:52;;;;;;;4.70;1.20;;;;;;;;;;5052583;28;20100;-65
2021/05/04 01:38:17;;;;;;;6.05;1.23;;;;;;;;;;5052800;28;20091;-67
2021/05/04 01:40:43;;;;;;;7.90;1.23;;;;;;;;;;5052696;28;20473;-67
2021/05/04 01:43:08;;;;;;;6.15;1.08;;;;;;;;;;5052330;28;20021;-67
2021/05/04 01:45:33;;;;;;;5.40;1.52;;;;;;;;;;5052420;28;20104;-67
2021/05/04 01:47:59;;;;;;;8.82;1.17;;;;;;;;;;5052600;28;20060;-67
2021/05/04 01:50:24;;;;;;;7.35;1.15;;;;;;;;;;5052588;28;20474;-65
2021/05/04 01:52:49;;;;;;;5.88;1.52;;;;;;;;;;5052284;28;20441;-65
2021/05/04 01:55:15;;;;;;;6.85;1.38;;;;;;;;;;5052608;28;20037;-64
2021/05/04 01:57:40;;;;;;;7.88;1.45;;;;;;;;;;5052417;28;20025;-64
2021/05/04 02:00:07;;;;;;;3.72;1.13;;;;;;;;;;5051988;28;20135;-64
2021/05/04 02:02:33;;;;;;;8.63;1.40;;;;;;;;;;5055425;28;20041;-64
2021/05/04 02:04:58;;;;;;;5.57;1.10;;;;;;;;;;5056239;28;20031;-65
2021/05/04 02:07:23;;;;;;;6.38;1.23;;;;;;;;;;5056092;28;20025;-64
2021/05/04 02:09:49;;;;;;;4.55;1.27;;;;;;;;;;5056166;28;20379;-64
2021/05/04 02:12:14;;;;;;;11.32;1.63;;;;;;;;;;5055683;28;20059;-64
2021/05/04 02:14:39;;;;;;;8.60;0.95;;;;;;;;;;5056096;28;20020;-64
2021/05/04 02:17:05;;;;;;;5.93;1.00;;;;;;;;;;5055855;28;20060;-64
2021/05/04 02:19:30;;;;;;;7.78;1.20;;;;;;;;;;5055928;28;20013;-64
2021/05/04 02:21:55;;;;;;;10.52;1.17;;;;;;;;;;5055782;28;20021;-65
2021/05/04 02:24:20;;;;;;;9.90;1.70;;;;;;;;;;5055841;28;20037;-64
2021/05/04 02:26:46;;;;;;;8.15;1.23;;;;;;;;;;5055641;28;20108;-64
2021/05/04 02:29:11;;;;;;;11.52;1.20;;;;;;;;;;5055944;28;20071;-65
2021/05/04 02:31:36;;;;;;;3.65;1.15;;;;;;;;;;5055490;28;20113;-64
2021/05/04 02:34:02;;;;;;;7.55;1.30;;;;;;;;;;5055792;28;20024;-65
2021/05/04 02:36:27;;;;;;;8.98;1.88;;;;;;;;;;5055483;28;20025;-65
2021/05/04 02:38:52;;;;;;;8.75;1.13;;;;;;;;;;5055620;28;20385;-64
2021/05/04 02:41:17;;;;;;;12.65;1.73;;;;;;;;;;5054932;28;20190;-65
2021/05/04 02:43:43;;;;;;;12.32;1.85;;;;;;;;;;5055782;28;20036;-65
2021/05/04 02:46:08;;;;;;;7.82;1.42;;;;;;;;;;5055354;28;20045;-65
2021/05/04 02:48:38;;;;;;;7.57;1.67;;;;;;;;;;5055200;28;20021;-65
2021/05/04 02:51:05;;;;;;;10.95;1.42;;;;;;;;;;5055335;28;20016;-64
2021/05/04 02:53:30;;;;;;;9.48;1.38;;;;;;;;;;5055319;28;20025;-64
2021/05/04 02:55:55;;;;;;;10.25;1.75;;;;;;;;;;5055260;28;20032;-64
2021/05/04 02:58:21;;;;;;;9.65;1.17;;;;;;;;;;5055120;28;20104;-64
2021/05/04 03:00:46;;;;;;;6.13;1.67;;;;;;;;;;5055308;28;20028;-64
2021/05/04 03:03:12;;;;;;;10.27;1.60;;;;;;;;;;5054326;28;20450;-64
2021/05/04 03:05:37;;;;;;;10.35;2.08;;;;;;;;;;5054917;28;20071;-64
2021/05/04 03:08:02;;;;;;;1.20;0.60;;;;;;;;;;5054909;28;20040;-65
2021/05/04 03:10:28;;;;;;;6.43;1.40;;;;;;;;;;5054726;28;20458;-64
2021/05/04 03:12:53;;;;;;;6.25;1.30;;;;;;;;;;5054195;28;20029;-64
2021/05/04 03:15:18;;;;;;;5.80;1.00;;;;;;;;;;5054905;28;20037;-65
2021/05/04 03:17:44;;;;;;;3.88;0.98;;;;;;;;;;5054448;28;20096;-64
2021/05/04 03:20:09;;;;;;;4.40;0.90;;;;;;;;;;5055205;28;20095;-64
2021/05/04 03:22:34;;;;;;;4.22;0.60;;;;;;;;;;5054260;28;20043;-64
2021/05/04 03:25:00;;;;;;;2.42;0.85;;;;;;;;;;5054756;28;20025;-64
2021/05/04 03:27:25;;;;;;;0.52;0.30;;;;;;;;;;5054637;28;20437;-64
2021/05/04 03:29:50;;;;;;;2.15;0.43;;;;;;;;;;5054628;28;20062;-64
2021/05/04 03:32:15;;;;;;;5.97;0.70;;;;;;;;;;5053216;28;20053;-64
2021/05/04 03:34:41;;;;;;;4.93;0.70;;;;;;;;;;5054602;28;20052;-64
2021/05/04 03:37:06;;;;;;;8.38;1.08;;;;;;;;;;5054408;28;20028;-64
2021/05/04 03:39:32;;;;;;;3.17;1.25;;;;;;;;;;5054225;28;20048;-64
2021/05/04 03:41:57;;;;;;;3.10;0.70;;;;;;;;;;5054246;28;20381;-64
2021/05/04 03:44:22;;;;;;;2.40;0.77;;;;;;;;;;5054242;28;20127;-64
2021/05/04 03:46:47;;;;;;;3.55;0.82;;;;;;;;;;5053982;28;20021;-64
2021/05/04 03:49:13;;;;;;;4.15;0.85;;;;;;;;;;5054294;28;20028;-64
2021/05/04 03:51:38;;;;;;;3.45;0.90;;;;;;;;;;5054138;28;20040;-64
2021/05/04 03:54:04;;;;;;;6.82;1.20;;;;;;;;;;5054192;28;20017;-64
2021/05/04 03:56:30;;;;;;;10.05;1.52;;;;;;;;;;5054071;28;20020;-64
2021/05/04 03:58:55;;;;;;;3.88;0.98;;;;;;;;;;5054097;28;20052;-64
2021/05/04 04:01:20;;;;;;;2.30;0.90;;;;;;;;;;5054230;28;20107;-64
2021/05/04 04:03:47;;;;;;;5.53;1.13;;;;;;;;;;5054020;28;20055;-64
2021/05/04 04:06:12;;;;;;;5.25;1.00;;;;;;;;;;5053812;28;20036;-64
2021/05/04 04:08:38;;;;;;;5.20;1.00;;;;;;;;;;5052641;28;20013;-64
2021/05/04 04:11:03;;;;;;;8.20;0.90;;;;;;;;;;5054178;28;20028;-64
2021/05/04 04:13:28;;;;;;;2.42;1.10;;;;;;;;;;5053642;28;20039;-64
2021/05/04 04:15:54;;;;;;;4.25;0.95;;;;;;;;;;5053817;28;20416;-64
2021/05/04 04:18:19;;;;;;;2.05;0.90;;;;;;;;;;5053630;28;20127;-64
2021/05/04 04:20:44;;;;;;;6.80;1.38;;;;;;;;;;5053714;28;20039;-64
2021/05/04 04:23:09;;;;;;;3.92;0.95;;;;;;;;;;5053782;28;20048;-64
2021/05/04 04:25:35;;;;;;;9.52;1.20;;;;;;;;;;5052681;28;20373;-64
2021/05/04 04:28:00;;;;;;;4.78;0.98;;;;;;;;;;5053478;28;20037;-64
2021/05/04 04:30:26;;;;;;;4.88;0.80;;;;;;;;;;5053491;28;20036;-64
2021/05/04 04:32:51;;;;;;;4.22;0.70;;;;;;;;;;5053513;28;20029;-64
2021/05/04 04:35:17;;;;;;;3.97;0.63;;;;;;;;;;5053465;28;20060;-64
2021/05/04 04:37:43;;;;;;;4.65;0.70;;;;;;;;;;5053283;28;20108;-64
2021/05/04 04:40:08;;;;;;;4.78;1.05;;;;;;;;;;5053291;28;20099;-64
2021/05/04 04:42:34;;;;;;;4.47;0.70;;;;;;;;;;5052697;28;20033;-64
2021/05/04 04:44:59;;;;;;;1.10;0.60;;;;;;;;;;5053353;28;20453;-64
2021/05/04 04:47:25;;;;;;;2.63;0.60;;;;;;;;;;5052918;28;20017;-64
2021/05/04 04:49:50;;;;;;;2.15;0.50;;;;;;;;;;5053657;28;20033;-64
2021/05/04 04:52:15;;;;;;;2.00;0.73;;;;;;;;;;5053126;28;20062;-64
2021/05/04 04:54:41;;;;;;;2.63;0.75;;;;;;;;;;5053245;28;20532;-65
2021/05/04 04:57:06;;;;;;;0.90;0.47;;;;;;;;;;5053074;28;20475;-64
2021/05/04 04:59:33;;;;;;;5.05;0.70;;;;;;;;;;5052879;28;20013;-64
2021/05/04 05:01:58;;;;;;;1.30;0.50;;;;;;;;;;5053102;28;20021;-64
2021/05/04 05:04:24;;;;;;;6.60;1.58;;;;;;;;;;5053064;28;20129;-64
2021/05/04 05:06:50;;;;;;;2.05;0.73;;;;;;;;;;5052948;28;20071;-65
2021/05/04 05:09:15;;;;;;;4.80;0.60;;;;;;;;;;5053147;28;20108;-65
2021/05/04 05:11:40;;;;;;;4.40;0.95;;;;;;;;;;5052925;28;20036;-64
2021/05/04 05:14:08;;;;;;;3.35;0.63;;;;;;;;;;5052974;28;20480;-65
2021/05/04 05:16:33;;;;;;;1.27;0.50;;;;;;;;;;5052965;28;20064;-64
2021/05/04 05:18:58;;;;;;;3.85;0.95;;;;;;;;;;5052985;28;20095;-64
2021/05/04 05:21:24;;;;;;;1.20;0.60;;;;;;;;;;5052859;28;20009;-64
2021/05/04 05:23:49;;;;;;;4.53;1.00;;;;;;;;;;5052911;28;20037;-64
2021/05/04 05:26:16;;;;;;;4.15;0.60;;;;;;;;;;5052931;28;20033;-65
2021/05/04 05:28:41;;;;;;;3.17;1.10;;;;;;;;;;5052725;28;20063;-64
2021/05/04 05:31:07;;;;;;;4.40;1.20;;;;;;;;;;5052936;28;20021;-65
2021/05/04 05:33:32;;;;;;;3.42;0.93;;;;;;;;;;5052636;28;20029;-65
2021/05/04 05:35:57;;;;;;;1.77;1.05;;;;;;;;;;5053848;28;20484;-65
2021/05/04 05:38:23;;;;;;;4.05;0.60;;;;;;;;;;5056630;28;20049;-65
2021/05/04 05:40:48;;;;;;;0.90;0.43;;;;;;;;;;5056860;28;20440;-65
2021/05/04 05:43:13;;;;;;;2.95;0.95;;;;;;;;;;5056347;28;20020;-65
2021/05/04 05:45:39;;;;;;;3.78;1.20;;;;;;;;;;5056632;28;20037;-65
2021/05/04 05:48:04;;;;;;;2.60;0.85;;;;;;;;;;5056435;28;20036;-65
2021/05/04 05:50:29;;;;;;;3.80;1.00;;;;;;;;;;5056857;28;20021;-65
2021/05/04 05:52:54;;;;;;;2.47;1.15;;;;;;;;;;5056191;28;20028;-65
2021/05/04 05:55:20;;;;;;;3.42;1.10;;;;;;;;;;5056451;28;20098;-66
2021/05/04 05:57:45;;;;;;;1.98;1.08;;;;;;;;;;5056335;28;20017;-65
2021/05/04 06:00:11;;;;;;;3.50;0.80;;;;;;;;;;5056723;28;20373;-65
2021/05/04 06:02:36;;;;;;;2.72;1.55;;;;;;;;;;5056066;28;20037;-65
2021/05/04 06:05:01;;;;;;;2.28;0.90;;;;;;;;;;5056244;28;20040;-65
2021/05/04 06:07:27;;;;;;;1.52;0.50;;;;;;;;;;5056165;28;20056;-65
2021/05/04 06:09:52;;;;;;;2.95;0.55;;;;;;;;;;5056179;28;20064;-65
2021/05/04 06:12:17;;;;;;;2.85;0.60;;;;;;;;;;5056034;28;20036;-65
2021/05/04 06:14:43;;;;;;;5.65;1.00;;;;;;;;;;5056050;28;20083;-65
2021/05/04 06:17:08;;;;;;;3.13;0.80;;;;;;;;;;5055979;28;20115;-65
2021/05/04 06:19:33;;;;;;;2.45;0.60;;;;;;;;;;5056199;28;20071;-66
2021/05/04 06:21:58;;;;;;;2.38;0.80;;;;;;;;;;5055985;28;20454;-66
2021/05/04 06:24:24;;;;;;;6.38;1.00;;;;;;;;;;5055462;28;20048;-66
2021/05/04 06:26:50;;;;;;;4.18;0.93;;;;;;;;;;5054503;28;20095;-66
2021/05/04 06:29:15;;;;;;;2.20;0.70;;;;;;;;;;5055538;28;20021;-65
2021/05/04 06:31:40;;;;;;;3.55;0.68;;;;;;;;;;5055658;28;20040;-65
2021/05/04 06:34:09;;;;;;;4.53;1.02;;;;;;;;;;5055762;28;20036;-65
2021/05/04 06:36:34;;;;;;;4.40;1.27;;;;;;;;;;5055515;28;20063;-65
2021/05/04 06:39:00;;;;;;;5.25;0.93;;;;;;;;;;5055469;28;20424;-65
2021/05/04 06:41:25;;;;;;;2.38;0.75;;;;;;;;;;5055767;28;20020;-65
2021/05/04 06:43:51;;;;;;;3.90;0.60;;;;;;;;;;5055454;28;20519;-65
2021/05/04 06:46:16;;;;;;;5.40;1.42;;;;;;;;;;5054917;28;20397;-65
2021/05/04 06:48:41;;;;;;;5.82;1.30;;;;;;;;;;5054262;28;20024;-65
2021/05/04 06:51:07;;;;;;;2.80;0.68;;;;;;;;;;5055523;28;20370;-66
2021/05/04 06:53:32;;;;;;;3.83;0.75;;;;;;;;;;5054932;28;20040;-65
2021/05/04 06:55:57;;;;;;;4.85;1.20;;;;;;;;;;5055331;28;20020;-65
2021/05/04 06:58:22;;;;;;;5.75;0.77;;;;;;;;;;5055165;28;20040;-65
2021/05/04 07:00:48;;;;;;;3.88;0.90;;;;;;;;;;5055147;28;20111;-66
2021/05/04 07:03:13;;;;;;;4.97;1.10;;;;;;;;;;5054928;28;20074;-66
2021/05/04 07:05:38;;;;;;;5.55;1.27;;;;;;;;;;5055233;28;20363;-66
2021/05/04 07:08:04;;;;;;;5.45;0.98;;;;;;;;;;5054809;28;20033;-66
2021/05/04 07:10:29;;;;;;;3.15;0.60;;;;;;;;;;5055074;28;20036;-66
2021/05/04 07:12:55;;;;;;;3.78;0.85;;;;;;;;;;5054901;28;20025;-66
2021/05/04 07:15:20;;;;;;;1.85;0.80;;;;;;;;;;5055052;28;20036;-66
2021/05/04 07:17:45;;;;;;;3.03;0.95;;;;;;;;;;5054556;28;20024;-66
2021/05/04 07:20:11;;;;;;;3.35;1.00;;;;;;;;;;5054663;28;20462;-66
2021/05/04 07:22:37;;;;;;;5.40;0.88;;;;;;;;;;5054487;28;20084;-66
2021/05/04 07:25:03;;;;;;;6.38;1.25;;;;;;;;;;5054548;28;20116;-66
2021/05/04 07:27:28;;;;;;;5.57;1.08;;;;;;;;;;5054586;28;20021;-66
2021/05/04 07:29:53;;;;;;;3.55;1.05;;;;;;;;;;5054453;28;20496;-66
2021/05/04 07:32:19;;;;;;;4.00;1.02;;;;;;;;;;5054185;28;20377;-66
2021/05/04 07:34:44;;;;;;;4.22;1.05;;;;;;;;;;5054716;28;20013;-66
2021/05/04 07:37:10;;;;;;;7.72;1.05;;;;;;;;;;5054453;28;20037;-66
2021/05/04 07:39:35;;;;;;;7.75;1.63;;;;;;;;;;5054269;28;20140;-66
2021/05/04 07:42:00;;;;;;;4.05;1.00;;;;;;;;;;5054095;28;20024;-65
2021/05/04 07:44:26;;;;;;;3.28;0.70;;;;;;;;;;5053870;28;20443;-66
2021/05/04 07:46:51;;;;;;;7.15;1.55;;;;;;;;;;5054247;28;20017;-66
2021/05/04 07:49:30;;;;;;;5.57;1.60;;;;;;;;;;5054620;28;20021;-66
2021/05/04 07:51:56;;;;;;;5.15;1.20;;;;;;;;;;5054048;28;20037;-66
2021/05/04 07:54:21;;;;;;;4.03;1.17;;;;;;;;;;5054103;28;20465;-66
2021/05/04 07:56:47;;;;;;;3.90;0.70;;;;;;;;;;5053958;28;20447;-66
2021/05/04 07:59:12;;;;;;;6.30;1.17;;;;;;;;;;5053926;28;20025;-66
2021/05/04 08:01:38;;;;;;;4.10;0.88;;;;;;;;;;5054124;28;20027;-66
2021/05/04 08:04:03;;;;;;;2.33;0.80;;;;;;;;;;5053736;28;20477;-66
2021/05/04 08:06:28;;;;;;;4.38;0.95;;;;;;;;;;5053994;28;20405;-66
2021/05/04 08:08:54;;;;;;;4.65;1.00;;;;;;;;;;5053824;28;20099;-66
2021/05/04 08:11:19;;;;;;;5.68;1.25;;;;;;;;;;5053967;28;20039;-66
2021/05/04 08:13:45;;;;;;;4.22;0.88;;;;;;;;;;5053283;28;20021;-65
2021/05/04 08:16:11;;;;;;;3.05;0.73;;;;;;;;;;5044115;28;20044;-65
2021/05/04 08:18:37;;;;;;;3.95;1.15;;;;;;;;;;5047609;28;20037;-65
2021/05/04 08:21:02;;;;;;;2.72;0.75;;;;;;;;;;5045966;28;20025;-65
2021/05/04 08:23:28;;;;;;;3.33;1.30;;;;;;;;;;5042187;28;20410;-68
2021/05/04 08:25:53;;;;;;;2.45;1.00;;;;;;;;;;5045891;28;20043;-68
2021/05/04 08:28:19;;;;;;;4.38;1.10;;;;;;;;;;5045568;28;20029;-66
2021/05/04 08:30:45;;;;;;;3.70;1.10;;;;;;;;;;5044832;28;20028;-66
2021/05/04 08:33:10;;;;;;;2.67;0.63;;;;;;;;;;5045331;28;20033;-66
2021/05/04 08:35:35;;;;;;;1.58;0.63;;;;;;;;;;5045156;28;20424;-66
2021/05/04 08:38:01;;;;;;;1.33;0.65;;;;;;;;;;5045443;28;20448;-65
2021/05/04 08:40:26;;;;;;;3.58;1.08;;;;;;;;;;5041006;28;20049;-68
2021/05/04 08:42:52;;;;;;;5.05;0.90;;;;;;;;;;5043347;28;20102;-68
2021/05/04 08:45:18;;;;;;;2.63;1.05;;;;;;;;;;5044862;28;20067;-68
2021/05/04 08:47:44;;;;;;;3.17;1.08;;;;;;;;;;5045429;28;20495;-68
2021/05/04 08:50:12;;;;;;;2.92;0.95;;;;;;;;;;5045350;28;20021;-68
2021/05/04 08:52:37;;;;;;;2.20;0.80;;;;;;;;;;5044296;28;20073;-68
2021/05/04 08:55:03;;;;;;;3.78;1.10;;;;;;;;;;5044246;28;20428;-66
2021/05/04 08:57:28;;;;;;;3.15;0.73;;;;;;;;;;5044977;28;20044;-66
2021/05/04 08:59:53;;;;;;;4.60;0.77;;;;;;;;;;5044429;28;20029;-65
2021/05/04 09:02:22;;;;;;;2.45;0.52;;;;;;;;;;5045058;28;20469;-66
2021/05/04 09:04:52;;;;;;;4.45;0.80;;;;;;;;;;5044850;28;20558;-65
2021/05/04 09:07:25;;;;;;;5.03;1.20;;;;;;;;;;5044889;28;20029;-65
2021/05/04 09:10:26;;;;;;;2.17;0.60;;;;;;;;;;5046180;28;20041;-65
2021/05/04 09:18:26;;;;;;;4.97;1.20;;;;;;;;;;5053299;28;20493;-65
2021/05/04 09:21:03;;;;;;;2.17;1.05;;;;;;;;;;5044829;28;20064;-66
2021/05/04 09:23:28;;;;;;;1.45;0.98;;;;;;;;;;5052723;28;20025;-66
2021/05/04 09:25:54;;;;;;;2.28;0.95;;;;;;;;;;5052748;28;20102;-66
2021/05/04 09:28:20;;;;;;;4.70;0.88;;;;;;;;;;5052637;28;20033;-66
2021/05/04 09:30:51;;;;;;;5.03;0.93;;;;;;;;;;5053201;28;20032;-66
2021/05/04 09:33:16;;;;;;;3.20;0.90;;;;;;;;;;5052329;28;20061;-65
2021/05/04 09:35:41;;;;;;;3.13;0.90;;;;;;;;;;5052831;28;20060;-65
2021/05/04 09:38:10;;;;;;;6.20;2.03;;;;;;;;;;5052622;28;20462;-65
2021/05/04 09:40:40;;;;;;;5.40;0.98;;;;;;;;;;5036627;28;20403;-66
2021/05/04 09:43:07;;;;;;;2.55;1.00;;;;;;;;;;5052315;28;20040;-65
2021/05/04 09:45:33;;;;;;;3.60;1.20;;;;;;;;;;5052876;28;20426;-65
2021/05/04 09:48:09;;;;;;;3.50;1.25;;;;;;;;;;5052653;28;20025;-66
2021/05/04 09:50:47;;;;;;;3.45;1.15;;;;;;;;;;5052463;28;20020;-66
2021/05/04 09:53:14;;;;;;;5.07;1.10;;;;;;;;;;5055510;28;20024;-65
2021/05/04 09:55:59;;;;;;;4.30;1.10;;;;;;;;;;5056359;28;20020;-65
2021/05/04 09:58:35;;;;;;;3.70;1.40;;;;;;;;;;5056030;28;20040;-65
2021/05/04 10:01:00;;;;;;;7.70;1.30;;;;;;;;;;5055771;28;20021;-65
2021/05/04 10:03:27;;;;;;;3.78;1.05;;;;;;;;;;5057829;28;20085;-65
2021/05/04 10:05:52;;;;;;;3.55;1.00;;;;;;;;;;5058246;28;20484;-65
2021/05/04 10:08:18;;;;;;;4.22;1.17;;;;;;;;;;5058556;28;20013;-66
2021/05/04 10:10:44;;;;;;;3.95;1.02;;;;;;;;;;5055001;28;20028;-66
2021/05/04 10:13:10;;;;;;;6.70;1.23;;;;;;;;;;5046170;28;20040;-65
2021/05/04 10:15:36;;;;;;;6.10;1.25;;;;;;;;;;5053404;28;20475;-65
2021/05/04 10:18:01;;;;;;;5.78;1.58;;;;;;;;;;5054038;28;20120;-65
2021/05/04 10:20:27;;;;;;;4.40;1.10;;;;;;;;;;5052771;28;20109;-65
2021/05/04 10:22:53;;;;;;;4.78;1.30;;;;;;;;;;5049795;28;20036;-65
2021/05/04 10:25:20;;;;;;;4.13;1.33;;;;;;;;;;5048710;28;20167;-65
2021/05/04 10:27:50;;;;;;;3.80;1.17;;;;;;;;;;5049520;28;20021;-65
2021/05/04 10:30:17;;;;;;;5.95;1.27;;;;;;;;;;5049399;28;20029;-65
2021/05/04 10:32:48;;;;;;;5.35;1.02;;;;;;;;;;5050461;28;20039;-65
2021/05/04 10:35:31;;;;;;;4.38;0.90;;;;;;;;;;5052140;28;20025;-65
2021/05/04 10:37:58;;;;;;;2.65;0.82;;;;;;;;;;5052541;28;20079;-68
2021/05/04 10:40:29;;;;;;;4.00;0.80;;;;;;;;;;5052069;28;20061;-68
2021/05/04 10:42:54;;;;;;;4.53;1.13;;;;;;;;;;5052275;28;20101;-67
2021/05/04 10:45:20;;;;;;;7.13;1.15;;;;;;;;;;5051635;28;20120;-67
2021/05/04 10:47:47;;;;;;;4.38;0.98;;;;;;;;;;5052583;28;20037;-67
2021/05/04 10:50:12;;;;;;;7.53;1.10;;;;;;;;;;5052844;28;20024;-67
2021/05/04 10:52:47;;;;;;;2.92;0.77;;;;;;;;;;5052229;28;20037;-67
2021/05/04 10:55:12;;;;;;;1.90;0.90;;;;;;;;;;5052072;28;20045;-67
2021/05/04 10:57:56;;;;;;;4.40;0.85;;;;;;;;;;5051786;28;20259;-67
2021/05/04 11:00:39;;;;;;;3.90;1.00;;;;;;;;;;5052141;28;20067;-67
2021/05/04 11:03:23;;;;;;;2.30;0.70;;;;;;;;;;5051222;28;20037;-67
2021/05/04 11:05:49;;;;;;;5.18;0.85;;;;;;;;;;5051780;28;20079;-67
2021/05/04 11:08:14;;;;;;;5.72;1.30;;;;;;;;;;5051751;28;20032;-67
2021/05/04 11:10:39;;;;;;;3.60;0.80;;;;;;;;;;5051867;28;20090;-67
2021/05/04 11:13:04;;;;;;;8.77;1.08;;;;;;;;;;5052269;28;20362;-67
2021/05/04 11:15:31;;;;;;;3.05;0.93;;;;;;;;;;5051411;28;20029;-67
2021/05/04 11:17:57;;;;;;;5.03;1.05;;;;;;;;;;5052022;28;20041;-67
2021/05/04 11:20:32;;;;;;;6.22;1.15;;;;;;;;;;5052096;28;20047;-67
2021/05/04 11:22:58;;;;;;;3.10;0.80;;;;;;;;;;5051462;28;20055;-67
2021/05/04 11:25:30;;;;;;;4.38;1.20;;;;;;;;;;5051542;28;20501;-67
2021/05/04 11:27:56;;;;;;;2.35;0.73;;;;;;;;;;5050822;28;20450;-67
2021/05/04 11:30:40;;;;;;;1.50;0.80;;;;;;;;;;5051451;28;20028;-67
2021/05/04 11:33:24;;;;;;;3.13;0.85;;;;;;;;;;5051277;28;20052;-67
2021/05/04 11:35:50;;;;;;;6.68;0.90;;;;;;;;;;5051269;28;20393;-67
2021/05/04 11:38:19;;;;;;;1.48;0.65;;;;;;;;;;5051067;28;20041;-67
2021/05/04 11:40:44;;;;;;;5.05;1.13;;;;;;;;;;5051294;28;20124;-67
2021/05/04 11:43:13;;;;;;;4.20;0.93;;;;;;;;;;5051283;28;20123;-67
2021/05/04 11:45:38;;;;;;;3.75;1.23;;;;;;;;;;5050086;28;20083;-67
2021/05/04 11:48:07;;;;;;;4.18;1.02;;;;;;;;;;5050827;28;20449;-68
2021/05/04 11:50:33;;;;;;;3.92;1.13;;;;;;;;;;5041717;28;20084;-67
2021/05/04 11:53:06;;;;;;;7.75;0.93;;;;;;;;;;5047148;28;20025;-67
2021/05/04 11:55:37;;;;;;;1.90;0.60;;;;;;;;;;5047307;28;20471;-68
2021/05/04 11:58:06;;;;;;;2.97;0.70;;;;;;;;;;5049974;28;20057;-67
2021/05/04 12:00:38;;;;;;;5.10;0.95;;;;;;;;;;5047083;28;20084;-67
2021/05/04 12:03:06;;;;;;;3.55;0.88;;;;;;;;;;5046847;28;20037;-67
2021/05/04 12:05:31;;;;;;;2.75;1.05;;;;;;;;;;5047035;28;20500;-68
2021/05/04 12:07:57;;;;;;;5.78;0.95;;;;;;;;;;5047245;28;20021;-68
2021/05/04 12:10:23;;;;;;;1.88;0.57;;;;;;;;;;5047582;28;20098;-69
2021/05/04 12:12:50;;;;;;;5.43;0.95;;;;;;;;;;5046534;28;20052;-68
2021/05/04 12:15:17;;;;;;;3.95;1.33;;;;;;;;;;5047621;28;20547;-68
2021/05/04 12:17:43;;;;;;;8.75;1.23;;;;;;;;;;5046875;28;20067;-68
2021/05/04 12:20:27;;;;;;;8.50;1.60;;;;;;;;;;5047343;28;20060;-68
2021/05/04 12:22:53;;;;;;;7.60;0.90;;;;;;;;;;5046184;28;20025;-68
2021/05/04 12:25:22;;;;;;;3.00;0.63;;;;;;;;;;5047103;28;20090;-68
2021/05/04 12:27:48;;;;;;;6.53;1.27;;;;;;;;;;5046237;28;20082;-68
2021/05/04 12:30:18;;;;;;;3.70;0.90;;;;;;;;;;5047007;28;20431;-68
2021/05/04 12:32:43;;;;;;;5.13;0.90;;;;;;;;;;5045248;28;20041;-68
2021/05/04 12:35:21;;;;;;;8.43;1.00;;;;;;;;;;5046705;28;20033;-68
2021/05/04 12:37:50;;;;;;;2.45;1.08;;;;;;;;;;5045831;28;20059;-68
2021/05/04 12:40:18;;;;;;;3.35;0.90;;;;;;;;;;5047175;28;20126;-68
2021/05/04 12:42:45;;;;;;;5.18;0.93;;;;;;;;;;5043384;28;20409;-68
2021/05/04 12:45:11;;;;;;;3.53;0.90;;;;;;;;;;5045791;28;20041;-68
2021/05/04 12:47:49;;;;;;;2.78;0.93;;;;;;;;;;5046458;28;20098;-68
2021/05/04 12:50:31;;;;;;;4.47;0.82;;;;;;;;;;5047241;28;20106;-68
2021/05/04 12:52:56;;;;;;;3.97;0.68;;;;;;;;;;5047197;28;20041;-68
2021/05/04 12:55:22;;;;;;;4.28;0.80;;;;;;;;;;5045943;28;20118;-68
2021/05/04 12:58:07;;;;;;;2.42;0.75;;;;;;;;;;5046590;28;20071;-68
2021/05/04 13:00:33;;;;;;;2.45;0.50;;;;;;;;;;5046282;28;20048;-68
2021/05/04 13:03:15;;;;;;;3.13;0.82;;;;;;;;;;5046432;28;20124;-69
2021/05/04 13:05:41;;;;;;;6.13;0.95;;;;;;;;;;5045451;28;20507;-68
2021/05/04 13:08:08;;;;;;;4.25;1.13;;;;;;;;;;5045917;28;20041;-68
2021/05/04 13:10:53;;;;;;;3.65;0.90;;;;;;;;;;5046362;28;20032;-67
2021/05/04 13:30:34;;;;;;;2.85;0.82;;;;;;;;;;5043473;28;20071;-68
2021/05/04 13:33:02;;;;;;;5.25;0.80;;;;;;;;;;5046384;28;20040;-68
2021/05/04 13:35:35;;;;;;;6.68;0.80;;;;;;;;;;5044234;28;20029;-67
2021/05/04 13:38:14;;;;;;;6.68;0.90;;;;;;;;;;5043469;28;20400;-67
2021/05/04 13:48:32;;;;;;;4.97;1.00;;;;;;;;;;5045074;28;20031;-67
2021/05/04 13:50:59;;;;;;;1.38;0.70;;;;;;;;;;5046131;28;20037;-67
2021/05/04 13:53:24;;;;;;;7.03;1.60;;;;;;;;;;5045324;28;20040;-67
2021/05/04 13:55:49;;;;;;;4.28;0.93;;;;;;;;;;5044554;28;20025;-67
2021/05/04 13:58:16;;;;;;;4.55;1.10;;;;;;;;;;5048427;28;20118;-68
2021/05/04 14:01:02;;;;;;;3.03;0.88;;;;;;;;;;5049042;28;20104;-67
2021/05/04 14:27:38;;;;;;;4.15;0.98;;;;;;;;;;5047513;28;20067;-67
2021/05/04 14:30:05;;;;;;;2.08;0.73;;;;;;;;;;5049539;28;20422;-67
2021/05/04 14:32:30;;;;;;;4.93;0.75;;;;;;;;;;5048644;28;20041;-67
2021/05/04 14:34:59;;;;;;;3.38;0.80;;;;;;;;;;5049671;28;20078;-66
2021/05/04 14:40:10;;;;;;;3.75;1.10;;;;;;;;;;5049163;28;20053;-66
2021/05/04 15:03:52;;;;;;;6.78;1.02;;;;;;;;;;5048786;28;20118;-66
2021/05/04 15:06:17;;;;;;;2.00;0.60;;;;;;;;;;5048731;28;20040;-66
2021/05/04 15:08:43;;;;;;;3.33;0.95;;;;;;;;;;5046680;28;20098;-67
2021/05/04 15:11:09;;;;;;;1.42;0.50;;;;;;;;;;5049052;28;20028;-66
2021/05/04 15:13:36;;;;;;;5.60;0.98;;;;;;;;;;5048140;28;20040;-66
2021/05/04 15:23:49;;;;;;;1.15;0.60;;;;;;;;;;5048194;28;20433;-66
2021/05/04 15:26:14;;;;;;;1.85;0.73;;;;;;;;;;5048799;28;20037;-66
2021/05/04 15:28:40;;;;;;;1.17;0.63;;;;;;;;;;5047046;28;20781;-66
2021/05/04 15:31:05;;;;;;;4.47;0.95;;;;;;;;;;5048288;28;20028;-66
2021/05/04 15:33:32;;;;;;;5.60;1.23;;;;;;;;;;5047073;28;20052;-66
2021/05/04 15:35:58;;;;;;;6.05;0.90;;;;;;;;;;5047402;28;20025;-66
2021/05/04 15:38:23;;;;;;;1.25;0.60;;;;;;;;;;5048333;28;20494;-66
2021/05/04 15:40:49;;;;;;;2.65;0.70;;;;;;;;;;5047650;28;20084;-66
2021/05/04 15:43:15;;;;;;;3.97;0.90;;;;;;;;;;5047577;28;20407;-66
2021/05/04 15:48:37;;;;;;;1.05;0.65;;;;;;;;;;5050204;28;20063;-66
2021/05/04 16:02:09;;;;;;;3.10;0.80;;;;;;;;;;5045999;28;20536;-66
2021/05/04 16:07:20;;;;;;;3.20;1.15;;;;;;;;;;5048912;28;20091;-66
2021/05/04 16:09:46;;;;;;;2.08;0.50;;;;;;;;;;5048951;28;20033;-66
2021/05/04 16:12:11;;;;;;;1.33;0.60;;;;;;;;;;5049775;28;20432;-66
2021/05/04 16:14:36;;;;;;;4.70;0.85;;;;;;;;;;5047323;28;20387;-66
2021/05/04 16:17:02;;;;;;;5.18;0.88;;;;;;;;;;5048570;28;20029;-66
2021/05/04 16:19:30;;;;;;;5.25;0.70;;;;;;;;;;5048782;28;20060;-66
2021/05/04 16:22:21;;;;;;;5.18;1.15;;;;;;;;;;5048651;28;20016;-66
2021/05/04 16:24:50;;;;;;;4.50;0.95;;;;;;;;;;5048121;28;20060;-66